Weather observations for the past three days for
Brunswick / Glynco
| Date | Time (edt) | Wind (kph) | Vis. (km) | Weather | Sky Cond. | Temperature (ºC) | Relative Humidity | Wind Chill (°C) | Heat Index (°C) | Pressure | Precipitation (cm) | ||||||
|---|---|---|---|---|---|---|---|---|---|---|---|---|---|---|---|---|---|
| Air | Dwpt | 6 hour | altimeter (cm) | sea level (mb) | 1 hr | 3 hr | 6 hr | ||||||||||
| Max. | Min. | ||||||||||||||||
| 04 | 10:35 | NW 7 | 16.09 | Fair | CLR | 24.8 | 7.2 | 33% | 25 | 76.45 | 0.0 | ||||||
| 04 | 10:15 | W 7 | 16.09 | Fair | CLR | 24.3 | 9.9 | 40% | 25 | 76.43 | 0.0 | ||||||
| 04 | 09:55 | W 6 | 16.09 | Fair | CLR | 22.8 | 11.8 | 50% | 76.43 | 0.0 | |||||||
| 04 | 09:35 | Calm | 16.09 | Fair | CLR | 21.5 | 14 | 62% | 76.43 | 0.0 | |||||||
| 04 | 09:15 | Calm | 16.09 | Fair | CLR | 19.1 | 17.8 | 92% | 76.45 | 0.0 | |||||||
| 04 | 08:55 | Calm | 16.09 | Fair | CLR | 17.1 | 16.7 | 98% | 76.43 | 0.0 | |||||||
| 04 | 08:35 | Calm | 16.09 | Fair | CLR | 15 | 14.6 | 97% | 76.43 | 0.0 | |||||||
| 04 | 08:15 | Calm | 16.09 | Fair | CLR | 13.4 | 13 | 97% | 76.43 | 0.0 | |||||||
| 04 | 07:55 | Calm | 16.09 | Fair | CLR | 11.7 | 11.3 | 11.8 | 7.5 | 97% | 76.43 | 0.0 | |||||
| 04 | 07:35 | Calm | 16.09 | Fair | CLR | 9.9 | 9.6 | 98% | 76.4 | 0.0 | |||||||
| 04 | 07:15 | Calm | 1.21 | Fog/Mist | VV005 | 8.2 | 7.8 | 97% | 76.4 | 0.0 | |||||||
| 04 | 06:55 | Calm | 8.05 | Fog/Mist | CLR | 7.9 | 7.4 | 97% | 76.38 | 0.0 | |||||||
| 04 | 06:35 | Calm | 1.21 | Fog/Mist | BKN002 | 7.7 | 7.1 | 96% | 76.35 | 0.0 | |||||||
| 04 | 06:15 | Calm | 0.80 | Fog | BKN002 | 7.8 | 7.3 | 97% | 76.35 | 0.0 | |||||||
| 04 | 05:55 | Calm | 0.80 | Fog | BKN002 | 7.9 | 7.3 | 96% | 76.35 | 0.0 | |||||||
| 04 | 05:35 | Calm | 0.80 | Fog | OVC002 | 8.5 | 7.9 | 96% | 76.35 | 0.0 | |||||||
| 04 | 05:15 | Calm | 0.24 | Fog | OVC002 | 8.9 | 8.2 | 95% | 76.38 | 0.0 | |||||||
| 04 | 04:55 | Calm | 0.40 | Fog | VV002 | 9.1 | 8.5 | 96% | 76.38 | 0.0 | |||||||
| 04 | 04:35 | Calm | 1.61 | Fog/Mist | VV007 | 8.8 | 8.1 | 95% | 76.38 | 0.0 | |||||||
| 04 | 04:15 | Calm | 8.05 | Fog/Mist | CLR | 8.5 | 7.8 | 95% | 76.38 | 0.0 | |||||||
| 04 | 03:55 | Calm | 6.44 | Fog/Mist | CLR | 8.7 | 8 | 95% | 76.38 | 0.0 | |||||||
| 04 | 03:35 | Calm | 11.27 | Fog/Mist | CLR | 8.9 | 8.1 | 95% | 76.38 | 0.0 | |||||||
| 04 | 03:15 | Calm | 3.22 | Fog/Mist | VV007 | 9 | 8.1 | 94% | 76.4 | 0.0 | |||||||
| 04 | 02:55 | Calm | 6.44 | Fog/Mist | CLR | 9.2 | 8.3 | 94% | 76.4 | 0.0 | |||||||
| 04 | 02:35 | Calm | 4.83 | Fog/Mist | CLR | 9.2 | 8.4 | 95% | 76.4 | 0.0 | |||||||
| 04 | 02:15 | N 6 | 2.01 | Fog/Mist | VV007 | 9.4 | 8.5 | 94% | 76.43 | 0.0 | |||||||
| 04 | 01:55 | Calm | 11.27 | Fog/Mist | CLR | 9.8 | 9 | 19.1 | 9.7 | 95% | 76.43 | 0.0 | |||||
| 04 | 01:35 | Calm | 16.09 | Fair | CLR | 9.9 | 9.1 | 95% | 76.43 | 0.0 | |||||||
| 04 | 01:15 | Calm | 11.27 | Fair | CLR | 9.9 | 9.1 | 95% | 76.45 | 0.0 | |||||||
| 04 | 00:55 | Calm | 16.09 | Fair | CLR | 10 | 9.2 | 95% | 76.45 | 0.0 | |||||||
| 04 | 00:35 | Calm | 16.09 | Fair | CLR | 10.1 | 9.3 | 95% | 76.45 | 0.0 | |||||||
| 04 | 00:15 | Calm | 16.09 | Fair | CLR | 10.2 | 9.3 | 94% | 76.45 | 0.0 | |||||||
| 03 | 23:55 | Calm | 16.09 | Fair | CLR | 10.3 | 9.2 | 93% | 76.45 | 0.0 | |||||||
| 03 | 23:35 | Calm | 16.09 | Fair | CLR | 10.5 | 9.4 | 93% | 76.45 | 0.0 | |||||||
| 03 | 23:15 | Calm | 16.09 | Fair | CLR | 10.6 | 9.2 | 91% | 76.45 | 0.0 | |||||||
| 03 | 22:55 | Calm | 16.09 | Fair | CLR | 11 | 9.4 | 90% | 76.45 | 0.0 | |||||||
| 03 | 22:35 | Calm | 16.09 | Fair | CLR | 11.2 | 9.2 | 88% | 76.45 | 0.0 | |||||||
| 03 | 22:15 | Calm | 16.09 | Fair | CLR | 11.8 | 9.9 | 88% | 76.45 | 0.0 | |||||||
| 03 | 21:55 | Calm | 16.09 | Fair | CLR | 12.3 | 9.9 | 85% | 76.43 | 0.0 | |||||||
| 03 | 21:35 | Calm | 16.09 | Fair | CLR | 13.1 | 8.7 | 75% | 76.4 | 0.0 | |||||||
| 03 | 21:15 | Calm | 16.09 | Fair | CLR | 13.8 | 7.2 | 65% | 76.4 | 0.0 | |||||||
| 03 | 20:55 | Calm | 16.09 | Fair | CLR | 15.4 | 9.3 | 67% | 76.38 | 0.0 | |||||||
| 03 | 20:35 | SE 7 | 16.09 | Fair | CLR | 17.2 | 9.5 | 61% | 76.38 | 0.0 | |||||||
| 03 | 20:15 | SE 9 | 16.09 | Fair | CLR | 18 | 9.4 | 57% | 76.38 | 0.0 | |||||||
| 03 | 19:55 | SE 11 | 16.09 | Fair | CLR | 19.4 | 9.4 | 25.2 | 19.2 | 53% | 76.35 | 0.0 | |||||
| 03 | 19:35 | SE 15 | 16.09 | Fair | CLR | 20.3 | 9.2 | 49% | 76.35 | 0.0 | |||||||
| 03 | 19:15 | SE 19 | 16.09 | Fair | CLR | 20.8 | 8.8 | 46% | 76.38 | 0.0 | |||||||
| 03 | 18:55 | SE 17 | 16.09 | Fair | CLR | 20.2 | 9.4 | 50% | 76.35 | 0.0 | |||||||
| 03 | 18:35 | E 15 | 16.09 | Fair | CLR | 20.8 | 9.2 | 48% | 76.38 | 0.0 | |||||||
| 03 | 18:15 | SE 17 | 16.09 | Fair | CLR | 21.3 | 8.7 | 45% | 76.35 | 0.0 | |||||||
| 03 | 17:55 | SE 15 | 16.09 | Fair | CLR | 21.9 | 9.2 | 44% | 76.35 | 0.0 | |||||||
| 03 | 17:35 | E 11 | 16.09 | Fair | CLR | 22.1 | 9.5 | 45% | 76.35 | 0.0 | |||||||
| 03 | 17:15 | E 11 | 16.09 | Fair | CLR | 22.8 | 9.3 | 42% | 76.35 | 0.0 | |||||||
| 03 | 16:55 | SE 19 | 16.09 | Fair | CLR | 23.3 | 9.7 | 42% | 76.38 | 0.0 | |||||||
| 03 | 16:35 | SE 19 | 16.09 | Fair | CLR | 23.4 | 9.6 | 42% | 76.38 | 0.0 | |||||||
| 03 | 16:15 | E 11 | 16.09 | Partly Cloudy | SCT048 SCT050 | 23.3 | 9.5 | 42% | 76.38 | 0.0 | |||||||
| 03 | 15:55 | E 17 G 26 | 16.09 | Partly Cloudy | SCT048 SCT050 | 23.6 | 10.2 | 43% | 76.4 | 0.0 | |||||||
| 03 | 15:35 | E 17 | 16.09 | Partly Cloudy | SCT044 SCT050 | 22.1 | 10.2 | 47% | 76.43 | 0.0 | |||||||
| 03 | 15:15 | SE 13 | 16.09 | Overcast | BKN046 OVC050 | 21.7 | 10.5 | 49% | 76.45 | 0.0 | |||||||
| 03 | 14:55 | E 17 | 16.09 | Overcast | SCT046 OVC060 | 23 | 10.1 | 44% | 76.48 | 0.0 | |||||||
| 03 | 14:35 | E 15 G 26 | 16.09 | Overcast | OVC047 | 24.2 | 10 | 41% | 25 | 76.48 | 0.0 | ||||||
| 03 | 14:15 | E 13 | 16.09 | Overcast | OVC050 | 22.6 | 10.4 | 46% | 76.5 | 0.0 | |||||||
| 03 | 13:55 | Calm | 16.09 | Mostly Cloudy | BKN050 | 22.4 | 8.7 | 24.2 | 12.4 | 42% | 76.5 | 0.0 | |||||
| 03 | 13:35 | E 19 | 16.09 | Fair | CLR | 23 | 10.7 | 46% | 76.53 | 0.0 | |||||||
| 03 | 13:15 | NE 19 | 16.09 | Partly Cloudy | SCT038 | 23 | 9.8 | 43% | 76.53 | 0.0 | |||||||
| 03 | 12:55 | E 24 | 16.09 | Partly Cloudy | SCT035 SCT043 SCT049 | 22.5 | 11.2 | 49% | 76.56 | 0.0 | |||||||
| 03 | 12:35 | NE 11 | 16.09 | Partly Cloudy | SCT035 SCT046 | 21.2 | 11.7 | 55% | 76.56 | 0.0 | |||||||
| 03 | 12:15 | E 17 | 16.09 | Fair | CLR | 21.9 | 11.5 | 52% | 76.56 | 0.0 | |||||||
| 03 | 11:55 | E 15 | 16.09 | Partly Cloudy | SCT030 | 21.9 | 12.4 | 55% | 76.56 | 0.0 | |||||||
| 03 | 11:35 | E 17 | 16.09 | Partly Cloudy | SCT030 | 20.3 | 10.7 | 54% | 76.56 | 0.0 | |||||||
| 03 | 11:15 | NE 13 | 16.09 | Fair | CLR | 20.7 | 12.4 | 59% | 76.56 | 0.0 | |||||||
| 03 | 10:55 | NE 15 | 16.09 | Fair | CLR | 20 | 12.3 | 61% | 76.56 | 0.0 | |||||||
| 03 | 10:35 | NE 13 | 16.09 | Fair | CLR | 19.2 | 12.2 | 64% | 76.53 | 0.0 | |||||||
| 03 | 10:15 | N 7 | 16.09 | Fair | CLR | 18.3 | 11.3 | 64% | 76.53 | 0.0 | |||||||
| 03 | 09:55 | N 11 | 16.09 | Fair | CLR | 17.2 | 12.1 | 72% | 76.5 | 0.0 | |||||||
| 03 | 09:35 | N 7 | 16.09 | Fair | CLR | 16.1 | 13.8 | 86% | 76.5 | 0.0 | |||||||
| 03 | 09:15 | N 9 | 16.09 | Fair | CLR | 14.5 | 13.9 | 96% | 76.5 | 0.0 | |||||||
| 03 | 08:55 | N 11 | 16.09 | Fair | CLR | 13.7 | 13.4 | 98% | 76.48 | 0.0 | |||||||
| 03 | 08:35 | N 9 | 16.09 | Fair | CLR | 13.1 | 12.9 | 99% | 76.48 | 0.0 | |||||||
| 03 | 08:15 | N 9 | 16.09 | Fair | CLR | 12.9 | 12.8 | 99% | 76.45 | 0.0 | |||||||
| 03 | 07:55 | Calm | 16.09 | Fair | CLR | 12.3 | 12.1 | 12.9 | 10.4 | 99% | 76.45 | 0.0 | |||||
| 03 | 07:35 | Calm | 16.09 | Fair | CLR | 11.8 | 11.6 | 99% | 76.43 | 0.0 | |||||||
| 03 | 07:15 | Calm | 16.09 | Fair | CLR | 11.2 | 11 | 99% | 76.43 | 0.0 | |||||||
| 03 | 06:55 | N 7 | 16.09 | Fair | CLR | 10.9 | 10.7 | 99% | 76.4 | 0.0 | |||||||
| 03 | 06:35 | N 7 | 16.09 | Fair | CLR | 10.7 | 10.5 | 99% | 76.38 | 0.0 | |||||||
| 03 | 06:15 | N 7 | 11.27 | Fog/Mist | CLR | 10.5 | 10.3 | 99% | 76.38 | 0.0 | |||||||
| 03 | 05:55 | N 6 | 8.05 | Fog/Mist | SCT005 | 10.6 | 10.4 | 99% | 76.35 | 0.0 | |||||||
| 03 | 05:35 | N 6 | 11.27 | Fog/Mist | SCT005 | 10.5 | 10.2 | 98% | 76.33 | 0.0 | |||||||
| 03 | 05:15 | Calm | 3.22 | Fog/Mist | CLR | 10.8 | 10.5 | 98% | 76.33 | 0.0 | |||||||
| 03 | 04:55 | N 6 | 11.27 | Fair | CLR | 11.3 | 11.1 | 99% | 76.33 | 0.0 | |||||||
| 03 | 04:35 | N 6 | 8.05 | Fog/Mist | CLR | 11.5 | 11.2 | 98% | 76.3 | 0.0 | |||||||
| 03 | 04:15 | NW 7 | 11.27 | Fair | CLR | 11.8 | 11.5 | 98% | 76.3 | 0.0 | |||||||
| 03 | 03:55 | NW 6 | 16.09 | Fair | CLR | 12.2 | 11.9 | 98% | 76.3 | 0.0 | |||||||
| 03 | 03:35 | NW 7 | 16.09 | Fair | CLR | 12.5 | 12.2 | 98% | 76.28 | 0.0 | |||||||
| 03 | 03:15 | W 7 | 16.09 | Partly Cloudy | SCT039 SCT050 | 12.7 | 12.4 | 98% | 76.28 | 0.0 | |||||||
| 03 | 02:55 | NW 9 | 16.09 | Overcast | BKN039 OVC048 | 12.7 | 12.4 | 98% | 76.28 | 0.0 | |||||||
| 03 | 02:35 | Calm | 16.09 | Overcast | OVC046 | 12.8 | 12.5 | 98% | 76.25 | 0.0 | |||||||
| 03 | 02:15 | N 6 | 16.09 | Overcast | OVC045 | 12.6 | 12.3 | 98% | 76.25 | 0.0 | |||||||
| 03 | 01:50 | N 6 | 16.09 | Overcast | OVC043 | 12.1 | 11.9 | 15.6 | 10.6 | 99% | 76.25 | 0.0 | |||||
| 03 | 01:35 | NW 6 | 8.05 | Fog/Mist | BKN045 BKN055 | 10.9 | 10.6 | 98% | 76.25 | 0.0 | |||||||
| 03 | 01:15 | Calm | 8.05 | Fog/Mist | SCT002 SCT049 | 10.7 | 10.3 | 97% | 76.25 | 0.0 | |||||||
| 03 | 00:55 | Calm | 0.80 | Fog | BKN002 | 10.8 | 10.3 | 97% | 76.23 | 0.0 | |||||||
| 03 | 00:35 | Calm | 1.61 | Fog/Mist | VV007 | 11 | 10.6 | 97% | 76.2 | 0.0 | |||||||
| 03 | 00:15 | Calm | 1.21 | Fog/Mist | VV005 | 11.3 | 10.8 | 97% | 76.2 | 0.0 | |||||||
| 02 | 23:55 | Calm | 16.09 | Fair | CLR | 12.2 | 11.7 | 97% | 76.2 | 0.0 | |||||||
| 02 | 23:35 | N 6 | 16.09 | Fair | CLR | 12.9 | 12.4 | 97% | 76.2 | 0.0 | |||||||
| 02 | 23:15 | NW 7 | 16.09 | Fair | CLR | 13.2 | 12.8 | 97% | 76.17 | 0.0 | |||||||
| 02 | 22:55 | NW 7 | 16.09 | Fair | CLR | 13.3 | 12.8 | 97% | 76.15 | 0.0 | |||||||
| 02 | 22:35 | NW 6 | 16.09 | Fair | CLR | 13.2 | 12.6 | 96% | 76.12 | 0.0 | |||||||
| 02 | 22:15 | NW 7 | 16.09 | Fair | CLR | 13.4 | 12.7 | 96% | 76.12 | 0.0 | |||||||
| 02 | 21:55 | NW 6 | 11.27 | Fog/Mist | CLR | 13.4 | 12.4 | 94% | 76.1 | 0.0 | |||||||
| 02 | 21:35 | N 6 | 16.09 | Fair | CLR | 14.1 | 13.1 | 94% | 76.07 | 0.0 | |||||||
| 02 | 21:15 | N 6 | 16.09 | Partly Cloudy | SCT055 | 14.7 | 13.7 | 94% | 76.02 | 0.0 | |||||||
| 02 | 20:55 | N 7 | 16.09 | Overcast | SCT012 OVC055 | 15.1 | 14.2 | 94% | 76.02 | 0.0 | |||||||
| 02 | 20:35 | N 9 | 16.09 | Overcast | BKN009 BKN014 OVC055 | 15.4 | 14.5 | 94% | 76 | 0.0 | |||||||
| 02 | 20:15 | N 9 | 16.09 | Overcast | BKN009 OVC013 | 15.5 | 14.6 | 94% | 76 | 0.0 | |||||||
| 02 | 19:55 | N 9 | 16.09 | Overcast | BKN009 OVC026 | 15.6 | 14.8 | 19 | 15.6 | 95% | 75.97 | 0.0 | 0.18 | ||||
| 02 | 19:35 | N 9 | 16.09 | Overcast | SCT009 SCT019 OVC028 | 15.6 | 14.8 | 95% | 75.95 | 0.0 | |||||||
| 02 | 19:15 | N 15 | 16.09 | Light Drizzle | SCT007 BKN019 OVC026 | 15.7 | 14.9 | 95% | 75.92 | 0.0 | |||||||
| 02 | 18:55 | N 15 | 8.05 | Light Drizzle Fog/Mist | BKN007 BKN013 OVC018 | 15.7 | 14.8 | 94% | 75.92 | 0.0 | |||||||
| 02 | 18:35 | N 9 | 6.44 | Fog/Mist | OVC009 | 16 | 15.1 | 94% | 75.9 | 0.0 | |||||||
| 02 | 18:15 | N 13 | 4.02 | Fog/Mist | BKN009 OVC016 | 16.2 | 15.2 | 94% | 75.87 | 0.0 | |||||||
| 02 | 17:55 | N 11 G 28 | 16.09 | Overcast | BKN009 BKN013 OVC018 | 16.3 | 15.3 | 94% | 75.84 | 0.0 | |||||||
| 02 | 17:35 | NW 19 | 16.09 | Overcast | OVC009 | 16.6 | 15.7 | 94% | 75.82 | 0.0 | |||||||
| 02 | 17:15 | NW 11 | 16.09 | Overcast | OVC009 | 16.4 | 15.5 | 94% | 75.79 | 0.0 | |||||||
| 02 | 16:55 | N 19 | 11.27 | Fog/Mist | OVC007 | 16.6 | 15.5 | 93% | 75.77 | 0.0 | 0.18 | ||||||
| 02 | 16:35 | N 17 G 28 | 16.09 | Overcast | BKN009 OVC014 | 18.2 | 17.2 | 94% | 75.77 | 0.0 | |||||||
| 02 | 16:15 | NW 11 | 16.09 | Overcast | BKN009 OVC014 | 18.2 | 17.1 | 93% | 75.74 | 0.0 | |||||||
| 02 | 15:55 | NW 9 | 16.09 | Light Rain | BKN007 OVC013 | 18.8 | 17.9 | 95% | 75.72 | 0.0 | 0.08 | ||||||
| 02 | 15:35 | NW 11 | 16.09 | Light Rain | OVC005 | 18.9 | 18.3 | 96% | 75.74 | 0.0 | 0.08 | ||||||
| 02 | 15:15 | NW 11 | 6.44 | Light Rain Fog/Mist | SCT005 BKN012 OVC017 | 18.2 | 17.6 | 96% | 75.74 | 0.0 | 0.05 | ||||||
| 02 | 14:55 | W 7 | 8.05 | Light Rain Fog/Mist | SCT007 BKN012 OVC018 | 18.2 | 17.6 | 96% | 75.77 | 0.0 | 0.1 | ||||||
| 02 | 14:35 | NW 6 | 8.05 | Rain Fog/Mist | SCT007 OVC013 | 18.3 | 17.7 | 96% | 75.77 | 0.0 | 0.05 | ||||||
| 02 | 14:15 | N 7 | 16.09 | Light Rain | BKN006 OVC029 | 18.4 | 17.8 | 96% | 75.74 | 0.0 | |||||||
| 02 | 13:55 | N 6 | 16.09 | Overcast | SCT006 OVC031 | 18.3 | 17.8 | 18.3 | 17.1 | 97% | 75.74 | 0.0 | 0.03 | 2.97 | |||
| 02 | 13:35 | NE 6 | 16.09 | Overcast | SCT006 BKN024 OVC033 | 17.8 | 17.4 | 98% | 75.74 | 0.0 | 0.03 | ||||||
| 02 | 13:15 | Calm | 8.05 | Light Rain Fog/Mist | BKN006 BKN009 OVC024 | 17.6 | 17.2 | 98% | 75.77 | 0.0 | |||||||
| 02 | 12:55 | NE 6 | 4.02 | Rain Fog/Mist | BKN004 BKN021 OVC045 | 17.4 | 16.9 | 97% | 75.77 | 0.0 | 1.78 | ||||||
| 02 | 12:35 | N 7 | 2.41 | Heavy Rain Fog/Mist | SCT004 OVC027 | 17.2 | 16.7 | 97% | 75.77 | 0.0 | 1.35 | ||||||
| 02 | 12:15 | N 11 | 4.02 | Heavy Rain Fog/Mist | SCT006 BKN024 OVC055 | 17.3 | 16.8 | 97% | 75.79 | 0.0 | 0.46 | ||||||
| 02 | 11:55 | NE 9 | 6.44 | Rain Fog/Mist | SCT006 BKN020 OVC090 | 17 | 17 | 100% | 75.77 | 0.0 | 0.66 | ||||||
| 02 | 11:35 | NE 15 | 6.44 | Rain Fog/Mist | BKN004 BKN014 OVC065 | 17.2 | 16.6 | 96% | 75.77 | 0.0 | 0.46 | ||||||
| 02 | 11:15 | N 11 | 11.27 | Heavy Rain Fog/Mist | BKN004 OVC009 | 17.2 | 16.6 | 96% | 75.84 | 0.0 | 0.15 | ||||||
| 02 | 10:55 | N 11 | 11.27 | Light Rain | OVC004 | 17.4 | 16.8 | 96% | 75.79 | 0.0 | 0.18 | 0.51 | |||||
| 02 | 10:35 | N 7 | 16.09 | Rain | BKN004 BKN012 OVC019 | 17.3 | 16.7 | 96% | 75.84 | 0.0 | 0.1 | ||||||
| 02 | 10:15 | N 13 | 11.27 | Rain | SCT006 BKN012 OVC025 | 17.3 | 16.6 | 96% | 75.84 | 0.0 | 0.05 | ||||||
| 02 | 09:55 | NE 6 | 8.05 | Rain Fog/Mist | SCT006 BKN018 OVC025 | 17.2 | 16.5 | 96% | 75.87 | 0.0 | 0.3 | ||||||
| 02 | 09:35 | Calm | 4.83 | Heavy Rain Fog/Mist | SCT008 OVC016 | 17.1 | 16.3 | 95% | 75.9 | 0.0 | 0.2 | ||||||
| 02 | 09:15 | Calm | 11.27 | Rain Fog/Mist | SCT007 OVC016 | 17.1 | 16.3 | 95% | 75.84 | 0.0 | 0.05 | ||||||
| 02 | 08:55 | N 11 | 16.09 | Light Rain | BKN007 OVC016 | 17.2 | 16.3 | 94% | 75.84 | 0.0 | |||||||
| 02 | 08:35 | NW 11 | 16.09 | Light Rain | SCT007 OVC016 | 17.4 | 16.6 | 95% | 75.84 | 0.0 | |||||||
| 02 | 08:15 | NW 17 | 16.09 | Overcast | SCT007 OVC014 | 17.3 | 16.5 | 95% | 75.82 | 0.0 | |||||||
| 02 | 07:55 | NW 11 | 16.09 | Overcast | SCT006 OVC014 | 17.4 | 16.7 | 17.4 | 16.6 | 96% | 75.79 | 0.0 | |||||
| 02 | 07:35 | W 9 | 16.09 | Overcast | BKN014 OVC028 | 17.3 | 16.6 | 96% | 75.79 | 0.0 | |||||||
| 02 | 07:15 | W 6 | 16.09 | Overcast | SCT012 OVC028 | 17.1 | 16.4 | 96% | 75.77 | 0.0 | |||||||
| 02 | 06:55 | Calm | 16.09 | Mostly Cloudy | BKN012 BKN032 BKN065 | 16.8 | 16 | 95% | 75.72 | 0.0 | |||||||
| 02 | 06:35 | NE 6 | 16.09 | Partly Cloudy | SCT032 SCT038 SCT065 | 16.8 | 15.9 | 94% | 75.69 | 0.0 | |||||||
| 02 | 06:15 | Calm | 16.09 | Mostly Cloudy | BKN038 | 16.7 | 15.7 | 94% | 75.69 | 0.0 | |||||||
| 02 | 05:55 | N 6 | 16.09 | Fair | CLR | 16.7 | 15.7 | 94% | 75.72 | 0.0 | |||||||
| 02 | 05:35 | N 9 | 16.09 | Fair | CLR | 16.7 | 15.7 | 94% | 75.72 | 0.0 | |||||||
| 02 | 05:15 | Calm | 16.09 | Partly Cloudy | SCT029 SCT036 SCT120 | 16.7 | 15.5 | 93% | 75.72 | 0.0 | |||||||
| 02 | 04:55 | Calm | 16.09 | Overcast | OVC036 | 16.8 | 15.5 | 92% | 75.74 | 0.0 | |||||||
| 02 | 04:35 | NW 6 | 16.09 | Overcast | OVC036 | 16.8 | 15.5 | 92% | 75.82 | 0.0 | |||||||
| 02 | 04:15 | Calm | 16.09 | Overcast | OVC038 | 16.7 | 15.4 | 92% | 75.82 | 0.0 | |||||||
| 02 | 03:55 | W 6 | 16.09 | Overcast | BKN038 BKN050 OVC075 | 16.9 | 15.6 | 92% | 75.84 | 0.0 | |||||||
| 02 | 03:35 | NW 6 | 16.09 | Mostly Cloudy | BKN060 BKN075 BKN085 | 17 | 15.7 | 92% | 75.84 | 0.0 | |||||||
| 02 | 03:15 | W 6 | 16.09 | Light Drizzle | SCT044 OVC070 | 17.1 | 15.7 | 92% | 75.87 | 0.0 | |||||||
| 02 | 02:35 | W 7 | 16.09 | Overcast | OVC070 | 17.2 | 16 | 93% | 75.87 | 0.0 | |||||||
| 02 | 02:15 | NW 7 | 16.09 | Overcast | OVC070 | 17.4 | 16.3 | 93% | 75.9 | 0.0 | |||||||
| 02 | 01:55 | W 6 | 16.09 | Overcast | OVC070 | 17.4 | 16.4 | 19.5 | 16.9 | 94% | 75.92 | 0.0 | 0.03 | ||||
| 02 | 01:35 | W 7 | 16.09 | Overcast | OVC070 | 17.3 | 16.4 | 94% | 75.92 | 0.0 | |||||||
| 02 | 01:15 | SW 7 | 16.09 | Overcast | BKN070 OVC080 | 17.2 | 16.3 | 94% | 75.92 | 0.0 | |||||||
| 02 | 00:55 | SW 6 | 16.09 | Overcast | OVC085 | 17.2 | 16.3 | 94% | 75.92 | 0.0 | |||||||
| 02 | 00:35 | W 6 | 16.09 | Overcast | OVC085 | 17.2 | 16.2 | 94% | 75.92 | 0.0 | |||||||
| 02 | 00:15 | Calm | 16.09 | Mostly Cloudy | BKN075 | 17.2 | 16.2 | 94% | 75.92 | 0.0 | |||||||
| 01 | 23:55 | W 6 | 16.09 | Partly Cloudy | SCT085 | 17.1 | 16 | 93% | 75.92 | 0.0 | |||||||
| 01 | 23:35 | N 9 | 16.09 | Fair | CLR | 16.9 | 15.6 | 92% | 75.87 | 0.0 | |||||||
| 01 | 23:15 | N 7 | 16.09 | Fair | CLR | 16.9 | 15.3 | 90% | 75.92 | 0.0 | |||||||
| 01 | 22:55 | Calm | 16.09 | Fair | CLR | 17.3 | 15.8 | 91% | 75.95 | 0.0 | 0.03 | ||||||
| 01 | 22:35 | Calm | 16.09 | Light Rain | SCT120 | 17.4 | 15.6 | 89% | 75.95 | 0.0 | |||||||
| 01 | 22:15 | Calm | 16.09 | Light Rain | SCT120 | 17.4 | 15.8 | 90% | 75.92 | 0.0 | |||||||
| 01 | 21:55 | N 9 | 16.09 | Light Rain | SCT120 | 17.5 | 15.8 | 90% | 75.87 | 0.0 | |||||||
| 01 | 21:35 | Calm | 16.09 | Fair | CLR | 17.5 | 15.5 | 88% | 75.92 | 0.0 | |||||||
| 01 | 21:15 | N 7 | 16.09 | Partly Cloudy | SCT120 | 17.6 | 15.6 | 88% | 75.92 | 0.0 | |||||||
| 01 | 20:55 | NW 6 | 16.09 | Mostly Cloudy | SCT047 BKN065 BKN080 | 18.1 | 16.1 | 88% | 75.97 | 0.0 | 0.03 | ||||||
| 01 | 20:35 | NW 7 | 16.09 | Light Rain | SCT045 SCT060 BKN110 | 18.6 | 16.3 | 87% | 75.97 | 0.0 | 0.03 | ||||||
| 01 | 20:15 | NW 6 | 16.09 | Light Rain | BKN110 | 19 | 15.8 | 82% | 75.92 | 0.0 | |||||||
| 01 | 19:55 | N 6 | 16.09 | Light Rain | SCT110 | 19.5 | 15.4 | 28.9 | 19.5 | 77% | 75.87 | 0.0 | |||||
| 01 | 19:35 | NW 7 | 16.09 | Fair | CLR | 20.1 | 15.4 | 75% | 75.87 | 0.0 | |||||||
| 01 | 19:15 | N 7 | 16.09 | Fair | CLR | 20.4 | 15.6 | 74% | 75.84 | 0.0 | |||||||
| 01 | 18:55 | NW 11 | 16.09 | Partly Cloudy | SCT065 | 20.7 | 15.8 | 74% | 75.84 | 0.0 | |||||||
| 01 | 18:35 | N 19 | 16.09 | Overcast | BKN065 OVC110 | 21 | 15.8 | 72% | 75.87 | 0.0 | |||||||
| 01 | 18:15 | NW 13 G 28 | 16.09 | Mostly Cloudy | SCT047 BKN065 BKN110 | 21.7 | 15.3 | 67% | 75.84 | 0.0 | |||||||
| 01 | 17:55 | NW 22 G 33 | 16.09 | Overcast | BKN047 OVC065 | 23.3 | 14.6 | 58% | 75.87 | 0.0 | |||||||
| 01 | 17:35 | NW 13 | 16.09 | Overcast | OVC047 | 24.3 | 15.8 | 59% | 25 | 75.82 | 0.0 | ||||||
| 01 | 17:15 | N 15 | 16.09 | Overcast | OVC047 | 25.3 | 16.8 | 59% | 26 | 75.79 | 0.0 | ||||||
| 01 | 16:55 | N 9 | 16.09 | Overcast | OVC047 | 27.2 | 16.4 | 52% | 28 | 75.77 | 0.0 | ||||||
| 01 | 16:35 | N 7 | 16.09 | Mostly Cloudy | BKN047 BKN090 | 28.3 | 15.5 | 46% | 28 | 75.79 | 0.0 | ||||||
| 01 | 16:15 | NE 19 | 16.09 | Mostly Cloudy | SCT060 SCT080 BKN090 | 28.2 | 15.1 | 45% | 28 | 75.79 | 0.0 | ||||||
| 01 | 15:55 | NW 13 | 16.09 | Overcast | BKN060 OVC090 | 26.7 | 14.7 | 48% | 27 | 75.82 | 0.0 | ||||||
| 01 | 15:35 | NW 9 | 16.09 | Overcast | OVC060 | 26.1 | 15.4 | 52% | 27 | 75.87 | 0.0 | ||||||
| 01 | 15:15 | NW 13 | 16.09 | Overcast | OVC060 | 26.4 | 15.2 | 50% | 27 | 75.87 | 0.0 | ||||||
| 01 | 14:55 | NW 13 | 16.09 | Mostly Cloudy | SCT060 BKN075 BKN120 | 28.4 | 15.5 | 45% | 28 | 75.87 | 0.0 | ||||||
| 01 | 14:35 | NW 15 | 16.09 | Mostly Cloudy | SCT085 BKN120 | 28.4 | 15.6 | 46% | 29 | 75.87 | 0.0 | ||||||
| 01 | 14:15 | W 19 | 16.09 | Mostly Cloudy | SCT060 SCT075 BKN085 | 28.3 | 15.6 | 46% | 28 | 75.87 | 0.0 | ||||||
| 01 | 13:55 | W 13 | 16.09 | Mostly Cloudy | SCT045 BKN060 BKN075 | 27.2 | 15.6 | 29 | 20.3 | 49% | 28 | 75.9 | 0.0 | ||||
| 01 | 13:35 | W 15 | 16.09 | Partly Cloudy | SCT045 SCT060 SCT120 | 28.2 | 15.4 | 46% | 28 | 75.9 | 0.0 | ||||||
| 01 | 13:15 | W 15 | 16.09 | Mostly Cloudy | SCT041 BKN060 BKN075 | 28.4 | 16.1 | 47% | 29 | 75.92 | 0.0 | ||||||
| 01 | 12:55 | W 15 | 16.09 | Overcast | SCT037 BKN060 OVC075 | 28.1 | 16.6 | 50% | 29 | 75.92 | 0.0 | ||||||
| 01 | 12:35 | NW 11 | 16.09 | Mostly Cloudy | SCT060 BKN075 | 27.6 | 17.3 | 53% | 28 | 75.95 | 0.0 | ||||||
| 01 | 12:15 | W 17 | 16.09 | Partly Cloudy | SCT060 SCT075 SCT110 | 27.1 | 17.6 | 56% | 28 | 75.95 | 0.0 | ||||||
| 01 | 11:55 | W 17 | 16.09 | Overcast | SCT001 OVC060 | 25.7 | 18.8 | 66% | 27 | 75.97 | 0.0 | ||||||
| 01 | 11:35 | W 15 | 3.22 | Overcast with Haze | BKN001 OVC060 | 25.8 | 19.5 | 68% | 27 | 75.97 | 0.0 | ||||||
| 01 | 11:15 | W 7 | 16.09 | Overcast | BKN060 OVC110 | 25.6 | 20.3 | 73% | 27 | 75.97 | 0.0 | ||||||
| Date | Time (edt) | Wind (kph) | Vis. (km) | Weather | Sky Cond. | Air | Dwpt | Max. | Min. | Relative Humidity | Wind Chill (°C) | Heat Index (°C) | altimeter (cm) | sea level (mb) | 1 hr | 3 hr | 6 hr |
| 6 hour | |||||||||||||||||
| Temperature (ºC) | Pressure | Precipitation (cm) | |||||||||||||||